sensor_id;sensor_type;location;lat;lon;timestamp;P1;durP1;ratioP1;P2;durP2;ratioP2
47912;SDS011;33676;51.006;17.180;2023-07-30T00:01:17;11.70;;;8.10;;
47912;SDS011;33676;51.006;17.180;2023-07-30T00:03:46;9.00;;;6.70;;
47912;SDS011;33676;51.006;17.180;2023-07-30T00:06:14;16.70;;;7.50;;
47912;SDS011;33676;51.006;17.180;2023-07-30T00:08:42;7.30;;;4.30;;
47912;SDS011;33676;51.006;17.180;2023-07-30T00:11:11;4.10;;;3.20;;
47912;SDS011;33676;51.006;17.180;2023-07-30T00:13:39;4.20;;;3.50;;
47912;SDS011;33676;51.006;17.180;2023-07-30T00:16:07;5.90;;;4.20;;
47912;SDS011;33676;51.006;17.180;2023-07-30T00:18:36;8.10;;;6.80;;
47912;SDS011;33676;51.006;17.180;2023-07-30T00:21:05;9.50;;;7.70;;
47912;SDS011;33676;51.006;17.180;2023-07-30T00:23:33;7.00;;;6.30;;
47912;SDS011;33676;51.006;17.180;2023-07-30T00:26:01;6.30;;;5.70;;
47912;SDS011;33676;51.006;17.180;2023-07-30T00:28:30;9.80;;;5.40;;
47912;SDS011;33676;51.006;17.180;2023-07-30T00:30:58;4.40;;;4.00;;
47912;SDS011;33676;51.006;17.180;2023-07-30T00:33:27;3.00;;;2.70;;
47912;SDS011;33676;51.006;17.180;2023-07-30T00:35:55;3.40;;;3.20;;
47912;SDS011;33676;51.006;17.180;2023-07-30T00:38:23;3.60;;;3.20;;
47912;SDS011;33676;51.006;17.180;2023-07-30T00:40:52;4.80;;;3.50;;
47912;SDS011;33676;51.006;17.180;2023-07-30T00:43:20;4.70;;;3.10;;
47912;SDS011;33676;51.006;17.180;2023-07-30T00:45:48;5.00;;;2.90;;
47912;SDS011;33676;51.006;17.180;2023-07-30T00:48:18;5.60;;;3.00;;
47912;SDS011;33676;51.006;17.180;2023-07-30T00:50:46;2.50;;;2.30;;
47912;SDS011;33676;51.006;17.180;2023-07-30T00:53:15;3.50;;;3.20;;
47912;SDS011;33676;51.006;17.180;2023-07-30T00:55:45;4.20;;;2.70;;
47912;SDS011;33676;51.006;17.180;2023-07-30T00:58:14;3.60;;;2.50;;
47912;SDS011;33676;51.006;17.180;2023-07-30T01:00:43;3.90;;;2.40;;
47912;SDS011;33676;51.006;17.180;2023-07-30T01:03:13;2.40;;;2.20;;
47912;SDS011;33676;51.006;17.180;2023-07-30T01:05:42;6.90;;;3.40;;
47912;SDS011;33676;51.006;17.180;2023-07-30T01:08:11;5.00;;;2.20;;
47912;SDS011;33676;51.006;17.180;2023-07-30T01:10:42;3.10;;;2.80;;
47912;SDS011;33676;51.006;17.180;2023-07-30T01:13:11;6.20;;;2.80;;
47912;SDS011;33676;51.006;17.180;2023-07-30T01:15:41;4.80;;;2.70;;
47912;SDS011;33676;51.006;17.180;2023-07-30T01:18:10;5.70;;;3.40;;
47912;SDS011;33676;51.006;17.180;2023-07-30T01:20:39;3.10;;;2.50;;
47912;SDS011;33676;51.006;17.180;2023-07-30T01:23:07;2.30;;;2.20;;
47912;SDS011;33676;51.006;17.180;2023-07-30T01:25:36;5.80;;;3.30;;
47912;SDS011;33676;51.006;17.180;2023-07-30T01:28:06;3.50;;;2.50;;
47912;SDS011;33676;51.006;17.180;2023-07-30T01:30:41;5.70;;;2.80;;
47912;SDS011;33676;51.006;17.180;2023-07-30T01:33:11;4.70;;;2.70;;
47912;SDS011;33676;51.006;17.180;2023-07-30T01:35:40;5.50;;;3.20;;
47912;SDS011;33676;51.006;17.180;2023-07-30T01:38:11;6.40;;;2.80;;
47912;SDS011;33676;51.006;17.180;2023-07-30T01:40:41;3.30;;;2.40;;
47912;SDS011;33676;51.006;17.180;2023-07-30T01:43:10;3.40;;;2.60;;
47912;SDS011;33676;51.006;17.180;2023-07-30T01:45:38;6.20;;;2.70;;
47912;SDS011;33676;51.006;17.180;2023-07-30T01:48:08;5.00;;;2.60;;
47912;SDS011;33676;51.006;17.180;2023-07-30T01:50:36;5.10;;;2.80;;
47912;SDS011;33676;51.006;17.180;2023-07-30T01:53:05;3.10;;;2.40;;
47912;SDS011;33676;51.006;17.180;2023-07-30T01:55:33;3.80;;;2.30;;
47912;SDS011;33676;51.006;17.180;2023-07-30T01:58:02;9.20;;;3.20;;
47912;SDS011;33676;51.006;17.180;2023-07-30T02:00:30;7.80;;;2.80;;
47912;SDS011;33676;51.006;17.180;2023-07-30T02:02:58;3.20;;;2.30;;
47912;SDS011;33676;51.006;17.180;2023-07-30T02:05:27;10.00;;;2.60;;
47912;SDS011;33676;51.006;17.180;2023-07-30T02:07:56;10.20;;;2.40;;
47912;SDS011;33676;51.006;17.180;2023-07-30T02:10:25;6.70;;;2.20;;
47912;SDS011;33676;51.006;17.180;2023-07-30T02:12:53;7.60;;;2.40;;
47912;SDS011;33676;51.006;17.180;2023-07-30T02:15:22;10.20;;;2.30;;
47912;SDS011;33676;51.006;17.180;2023-07-30T02:17:50;6.10;;;2.70;;
47912;SDS011;33676;51.006;17.180;2023-07-30T02:20:19;4.20;;;2.30;;
47912;SDS011;33676;51.006;17.180;2023-07-30T02:22:47;10.10;;;2.60;;
47912;SDS011;33676;51.006;17.180;2023-07-30T02:25:16;3.40;;;2.10;;
47912;SDS011;33676;51.006;17.180;2023-07-30T02:27:44;5.20;;;2.90;;
47912;SDS011;33676;51.006;17.180;2023-07-30T02:30:13;4.60;;;2.50;;
47912;SDS011;33676;51.006;17.180;2023-07-30T02:32:41;6.90;;;2.70;;
47912;SDS011;33676;51.006;17.180;2023-07-30T02:35:09;8.40;;;3.70;;
47912;SDS011;33676;51.006;17.180;2023-07-30T02:37:38;7.20;;;3.20;;
47912;SDS011;33676;51.006;17.180;2023-07-30T02:40:07;5.60;;;2.60;;
47912;SDS011;33676;51.006;17.180;2023-07-30T02:42:36;3.70;;;2.30;;
47912;SDS011;33676;51.006;17.180;2023-07-30T02:45:04;4.90;;;2.40;;
47912;SDS011;33676;51.006;17.180;2023-07-30T02:47:33;6.10;;;2.50;;
47912;SDS011;33676;51.006;17.180;2023-07-30T02:50:03;4.30;;;2.30;;
47912;SDS011;33676;51.006;17.180;2023-07-30T02:52:32;3.20;;;2.20;;
47912;SDS011;33676;51.006;17.180;2023-07-30T02:55:01;9.00;;;2.90;;
47912;SDS011;33676;51.006;17.180;2023-07-30T02:57:29;3.40;;;2.50;;
47912;SDS011;33676;51.006;17.180;2023-07-30T02:59:57;4.40;;;2.30;;
47912;SDS011;33676;51.006;17.180;2023-07-30T03:02:26;2.30;;;2.10;;
47912;SDS011;33676;51.006;17.180;2023-07-30T03:04:55;7.80;;;2.50;;
47912;SDS011;33676;51.006;17.180;2023-07-30T03:07:25;5.70;;;3.60;;
47912;SDS011;33676;51.006;17.180;2023-07-30T03:09:54;3.70;;;3.40;;
47912;SDS011;33676;51.006;17.180;2023-07-30T03:12:22;7.00;;;2.70;;
47912;SDS011;33676;51.006;17.180;2023-07-30T03:14:51;7.90;;;5.60;;
47912;SDS011;33676;51.006;17.180;2023-07-30T03:17:19;5.00;;;3.50;;
47912;SDS011;33676;51.006;17.180;2023-07-30T03:19:48;5.00;;;3.60;;
47912;SDS011;33676;51.006;17.180;2023-07-30T03:22:16;7.80;;;3.80;;
47912;SDS011;33676;51.006;17.180;2023-07-30T03:24:48;4.90;;;4.20;;
47912;SDS011;33676;51.006;17.180;2023-07-30T03:27:17;3.50;;;3.20;;
47912;SDS011;33676;51.006;17.180;2023-07-30T03:29:45;5.30;;;3.40;;
47912;SDS011;33676;51.006;17.180;2023-07-30T03:32:13;15.50;;;3.90;;
47912;SDS011;33676;51.006;17.180;2023-07-30T03:34:42;8.80;;;4.10;;
47912;SDS011;33676;51.006;17.180;2023-07-30T03:37:10;5.70;;;3.30;;
47912;SDS011;33676;51.006;17.180;2023-07-30T03:39:39;4.00;;;3.60;;
47912;SDS011;33676;51.006;17.180;2023-07-30T03:42:07;7.10;;;3.00;;
47912;SDS011;33676;51.006;17.180;2023-07-30T03:44:35;4.60;;;3.10;;
47912;SDS011;33676;51.006;17.180;2023-07-30T03:56:38;8.10;;;2.70;;
47912;SDS011;33676;51.006;17.180;2023-07-30T03:59:07;8.60;;;3.30;;
47912;SDS011;33676;51.006;17.180;2023-07-30T04:01:35;6.80;;;3.40;;
47912;SDS011;33676;51.006;17.180;2023-07-30T04:04:04;3.30;;;2.70;;
47912;SDS011;33676;51.006;17.180;2023-07-30T04:06:32;7.20;;;3.00;;
47912;SDS011;33676;51.006;17.180;2023-07-30T04:09:01;10.20;;;3.10;;
47912;SDS011;33676;51.006;17.180;2023-07-30T04:11:29;6.60;;;3.30;;
47912;SDS011;33676;51.006;17.180;2023-07-30T04:13:58;12.30;;;3.30;;
47912;SDS011;33676;51.006;17.180;2023-07-30T04:17:46;8.80;;;2.90;;
47912;SDS011;33676;51.006;17.180;2023-07-30T04:20:14;7.10;;;3.20;;
47912;SDS011;33676;51.006;17.180;2023-07-30T04:22:43;10.30;;;3.70;;
47912;SDS011;33676;51.006;17.180;2023-07-30T04:25:12;8.80;;;2.90;;
47912;SDS011;33676;51.006;17.180;2023-07-30T04:27:40;3.50;;;2.40;;
47912;SDS011;33676;51.006;17.180;2023-07-30T04:30:09;6.60;;;3.30;;
47912;SDS011;33676;51.006;17.180;2023-07-30T04:32:38;5.90;;;3.20;;
47912;SDS011;33676;51.006;17.180;2023-07-30T04:35:06;6.30;;;3.30;;
47912;SDS011;33676;51.006;17.180;2023-07-30T04:37:35;7.50;;;2.40;;
47912;SDS011;33676;51.006;17.180;2023-07-30T04:40:04;6.70;;;2.90;;
47912;SDS011;33676;51.006;17.180;2023-07-30T04:42:33;4.80;;;2.80;;
47912;SDS011;33676;51.006;17.180;2023-07-30T04:45:01;9.00;;;5.40;;
47912;SDS011;33676;51.006;17.180;2023-07-30T04:47:33;7.10;;;3.70;;
47912;SDS011;33676;51.006;17.180;2023-07-30T04:50:01;7.70;;;2.70;;
47912;SDS011;33676;51.006;17.180;2023-07-30T04:52:30;13.10;;;4.10;;
47912;SDS011;33676;51.006;17.180;2023-07-30T04:54:58;8.10;;;2.50;;
47912;SDS011;33676;51.006;17.180;2023-07-30T04:57:27;12.70;;;3.40;;
47912;SDS011;33676;51.006;17.180;2023-07-30T04:59:55;8.20;;;3.30;;
47912;SDS011;33676;51.006;17.180;2023-07-30T05:02:24;11.10;;;3.00;;
47912;SDS011;33676;51.006;17.180;2023-07-30T05:04:52;9.40;;;3.40;;
47912;SDS011;33676;51.006;17.180;2023-07-30T05:07:21;5.40;;;3.20;;
47912;SDS011;33676;51.006;17.180;2023-07-30T05:09:49;7.30;;;3.00;;
47912;SDS011;33676;51.006;17.180;2023-07-30T05:12:17;8.10;;;3.60;;
47912;SDS011;33676;51.006;17.180;2023-07-30T05:14:46;15.80;;;3.60;;
47912;SDS011;33676;51.006;17.180;2023-07-30T05:17:14;7.60;;;3.10;;
47912;SDS011;33676;51.006;17.180;2023-07-30T05:19:43;14.90;;;3.10;;
47912;SDS011;33676;51.006;17.180;2023-07-30T05:22:11;6.00;;;3.30;;
47912;SDS011;33676;51.006;17.180;2023-07-30T05:24:40;7.50;;;3.10;;
47912;SDS011;33676;51.006;17.180;2023-07-30T05:27:08;13.00;;;3.40;;
47912;SDS011;33676;51.006;17.180;2023-07-30T05:29:37;8.60;;;2.60;;
47912;SDS011;33676;51.006;17.180;2023-07-30T05:32:05;6.20;;;2.50;;
47912;SDS011;33676;51.006;17.180;2023-07-30T05:34:34;5.70;;;2.90;;
47912;SDS011;33676;51.006;17.180;2023-07-30T05:37:03;7.50;;;2.80;;
47912;SDS011;33676;51.006;17.180;2023-07-30T05:39:31;8.10;;;3.10;;
47912;SDS011;33676;51.006;17.180;2023-07-30T05:42:00;11.40;;;3.90;;
47912;SDS011;33676;51.006;17.180;2023-07-30T05:44:28;5.50;;;3.30;;
47912;SDS011;33676;51.006;17.180;2023-07-30T05:46:56;4.20;;;2.90;;
47912;SDS011;33676;51.006;17.180;2023-07-30T05:49:25;6.00;;;2.50;;
47912;SDS011;33676;51.006;17.180;2023-07-30T05:51:53;3.20;;;2.60;;
47912;SDS011;33676;51.006;17.180;2023-07-30T05:54:22;4.50;;;2.20;;
47912;SDS011;33676;51.006;17.180;2023-07-30T05:56:50;6.40;;;3.30;;
47912;SDS011;33676;51.006;17.180;2023-07-30T05:59:19;3.20;;;2.80;;
47912;SDS011;33676;51.006;17.180;2023-07-30T06:01:50;6.10;;;2.90;;
47912;SDS011;33676;51.006;17.180;2023-07-30T06:04:19;8.80;;;2.80;;
47912;SDS011;33676;51.006;17.180;2023-07-30T06:06:47;4.40;;;2.50;;
47912;SDS011;33676;51.006;17.180;2023-07-30T06:09:16;6.80;;;2.70;;
47912;SDS011;33676;51.006;17.180;2023-07-30T06:11:44;4.60;;;2.60;;
47912;SDS011;33676;51.006;17.180;2023-07-30T06:14:12;9.70;;;3.20;;
47912;SDS011;33676;51.006;17.180;2023-07-30T06:16:41;10.60;;;2.80;;
47912;SDS011;33676;51.006;17.180;2023-07-30T06:19:09;3.60;;;2.60;;
47912;SDS011;33676;51.006;17.180;2023-07-30T06:21:38;6.70;;;2.50;;
47912;SDS011;33676;51.006;17.180;2023-07-30T06:24:07;9.20;;;3.40;;
47912;SDS011;33676;51.006;17.180;2023-07-30T06:26:53;4.50;;;2.30;;
47912;SDS011;33676;51.006;17.180;2023-07-30T06:29:22;4.40;;;2.60;;
47912;SDS011;33676;51.006;17.180;2023-07-30T06:31:50;3.60;;;2.50;;
47912;SDS011;33676;51.006;17.180;2023-07-30T06:34:18;5.20;;;3.10;;
47912;SDS011;33676;51.006;17.180;2023-07-30T06:36:47;3.20;;;2.90;;
47912;SDS011;33676;51.006;17.180;2023-07-30T06:39:15;5.30;;;3.50;;
47912;SDS011;33676;51.006;17.180;2023-07-30T06:41:44;8.60;;;2.60;;
47912;SDS011;33676;51.006;17.180;2023-07-30T06:44:13;5.30;;;2.50;;
47912;SDS011;33676;51.006;17.180;2023-07-30T06:46:41;3.80;;;2.40;;
47912;SDS011;33676;51.006;17.180;2023-07-30T06:49:10;8.50;;;4.20;;
47912;SDS011;33676;51.006;17.180;2023-07-30T06:51:38;2.60;;;2.20;;
47912;SDS011;33676;51.006;17.180;2023-07-30T06:54:07;4.90;;;2.70;;
47912;SDS011;33676;51.006;17.180;2023-07-30T06:56:36;5.00;;;2.40;;
47912;SDS011;33676;51.006;17.180;2023-07-30T06:59:04;2.70;;;2.50;;
47912;SDS011;33676;51.006;17.180;2023-07-30T07:01:32;2.40;;;2.00;;
47912;SDS011;33676;51.006;17.180;2023-07-30T07:04:01;3.80;;;1.90;;
47912;SDS011;33676;51.006;17.180;2023-07-30T07:06:29;2.90;;;2.50;;
47912;SDS011;33676;51.006;17.180;2023-07-30T07:08:58;3.90;;;2.30;;
47912;SDS011;33676;51.006;17.180;2023-07-30T07:11:26;2.30;;;2.20;;
47912;SDS011;33676;51.006;17.180;2023-07-30T07:13:54;2.40;;;2.10;;
47912;SDS011;33676;51.006;17.180;2023-07-30T07:16:23;4.00;;;3.00;;
47912;SDS011;33676;51.006;17.180;2023-07-30T07:18:51;3.70;;;2.30;;
47912;SDS011;33676;51.006;17.180;2023-07-30T07:21:20;2.50;;;2.40;;
47912;SDS011;33676;51.006;17.180;2023-07-30T07:23:48;5.80;;;2.70;;
47912;SDS011;33676;51.006;17.180;2023-07-30T07:26:17;2.60;;;2.40;;
47912;SDS011;33676;51.006;17.180;2023-07-30T07:28:45;2.80;;;2.40;;
47912;SDS011;33676;51.006;17.180;2023-07-30T07:31:14;2.60;;;2.40;;
47912;SDS011;33676;51.006;17.180;2023-07-30T07:33:44;2.60;;;2.20;;
47912;SDS011;33676;51.006;17.180;2023-07-30T07:36:13;2.60;;;2.40;;
47912;SDS011;33676;51.006;17.180;2023-07-30T07:38:42;4.40;;;2.60;;
47912;SDS011;33676;51.006;17.180;2023-07-30T07:41:15;2.50;;;2.30;;
47912;SDS011;33676;51.006;17.180;2023-07-30T07:43:47;2.90;;;2.50;;
47912;SDS011;33676;51.006;17.180;2023-07-30T07:46:16;5.10;;;2.50;;
47912;SDS011;33676;51.006;17.180;2023-07-30T07:48:44;2.30;;;2.20;;
47912;SDS011;33676;51.006;17.180;2023-07-30T07:51:12;2.90;;;2.70;;
47912;SDS011;33676;51.006;17.180;2023-07-30T07:53:41;2.60;;;2.40;;
47912;SDS011;33676;51.006;17.180;2023-07-30T07:56:09;2.50;;;2.30;;
47912;SDS011;33676;51.006;17.180;2023-07-30T07:58:38;2.40;;;2.20;;
47912;SDS011;33676;51.006;17.180;2023-07-30T08:01:06;3.10;;;2.80;;
47912;SDS011;33676;51.006;17.180;2023-07-30T08:03:35;2.60;;;2.40;;
47912;SDS011;33676;51.006;17.180;2023-07-30T08:06:03;3.30;;;2.60;;
47912;SDS011;33676;51.006;17.180;2023-07-30T08:08:33;2.00;;;1.90;;
47912;SDS011;33676;51.006;17.180;2023-07-30T08:11:08;2.50;;;2.30;;
47912;SDS011;33676;51.006;17.180;2023-07-30T08:13:37;4.40;;;2.60;;
47912;SDS011;33676;51.006;17.180;2023-07-30T08:16:07;2.80;;;2.60;;
47912;SDS011;33676;51.006;17.180;2023-07-30T08:18:35;2.80;;;2.30;;
47912;SDS011;33676;51.006;17.180;2023-07-30T08:21:04;2.80;;;2.60;;
47912;SDS011;33676;51.006;17.180;2023-07-30T08:23:32;7.10;;;2.50;;
47912;SDS011;33676;51.006;17.180;2023-07-30T08:26:00;3.20;;;2.70;;
47912;SDS011;33676;51.006;17.180;2023-07-30T08:28:29;2.10;;;2.00;;
47912;SDS011;33676;51.006;17.180;2023-07-30T08:31:01;2.10;;;2.00;;
47912;SDS011;33676;51.006;17.180;2023-07-30T08:33:30;2.70;;;2.20;;
47912;SDS011;33676;51.006;17.180;2023-07-30T08:35:59;2.20;;;2.10;;
47912;SDS011;33676;51.006;17.180;2023-07-30T08:38:27;4.20;;;2.20;;
47912;SDS011;33676;51.006;17.180;2023-07-30T08:40:56;3.30;;;2.50;;
47912;SDS011;33676;51.006;17.180;2023-07-30T08:43:25;2.70;;;2.30;;
47912;SDS011;33676;51.006;17.180;2023-07-30T08:45:54;2.60;;;2.30;;
47912;SDS011;33676;51.006;17.180;2023-07-30T08:48:22;2.40;;;2.20;;
47912;SDS011;33676;51.006;17.180;2023-07-30T08:50:51;2.70;;;2.10;;
47912;SDS011;33676;51.006;17.180;2023-07-30T08:53:20;2.30;;;2.10;;
47912;SDS011;33676;51.006;17.180;2023-07-30T08:55:48;2.00;;;1.90;;
47912;SDS011;33676;51.006;17.180;2023-07-30T08:58:17;3.40;;;2.10;;
47912;SDS011;33676;51.006;17.180;2023-07-30T09:00:46;2.00;;;1.70;;
47912;SDS011;33676;51.006;17.180;2023-07-30T09:03:19;1.70;;;1.50;;
47912;SDS011;33676;51.006;17.180;2023-07-30T09:05:51;1.60;;;1.60;;
47912;SDS011;33676;51.006;17.180;2023-07-30T09:08:19;3.60;;;2.10;;
47912;SDS011;33676;51.006;17.180;2023-07-30T09:10:48;3.30;;;2.00;;
47912;SDS011;33676;51.006;17.180;2023-07-30T09:13:22;5.60;;;2.60;;
47912;SDS011;33676;51.006;17.180;2023-07-30T09:16:04;2.00;;;1.90;;
47912;SDS011;33676;51.006;17.180;2023-07-30T09:18:39;1.90;;;1.80;;
47912;SDS011;33676;51.006;17.180;2023-07-30T09:21:13;2.20;;;2.10;;
47912;SDS011;33676;51.006;17.180;2023-07-30T09:23:43;2.10;;;1.60;;
47912;SDS011;33676;51.006;17.180;2023-07-30T09:26:13;2.50;;;2.30;;
47912;SDS011;33676;51.006;17.180;2023-07-30T09:28:42;2.30;;;1.80;;
47912;SDS011;33676;51.006;17.180;2023-07-30T09:31:10;2.10;;;2.00;;
47912;SDS011;33676;51.006;17.180;2023-07-30T09:33:50;2.10;;;2.00;;
47912;SDS011;33676;51.006;17.180;2023-07-30T09:36:19;2.10;;;2.00;;
47912;SDS011;33676;51.006;17.180;2023-07-30T09:38:47;2.70;;;1.60;;
47912;SDS011;33676;51.006;17.180;2023-07-30T09:41:17;1.50;;;1.50;;
47912;SDS011;33676;51.006;17.180;2023-07-30T09:43:46;2.00;;;1.90;;
47912;SDS011;33676;51.006;17.180;2023-07-30T09:46:15;2.00;;;1.90;;
47912;SDS011;33676;51.006;17.180;2023-07-30T09:48:43;1.90;;;1.80;;
47912;SDS011;33676;51.006;17.180;2023-07-30T09:51:12;2.10;;;1.90;;
47912;SDS011;33676;51.006;17.180;2023-07-30T09:53:40;1.40;;;1.40;;
47912;SDS011;33676;51.006;17.180;2023-07-30T09:56:09;2.30;;;1.60;;
47912;SDS011;33676;51.006;17.180;2023-07-30T09:58:38;1.80;;;1.70;;
47912;SDS011;33676;51.006;17.180;2023-07-30T10:01:07;2.00;;;1.90;;
47912;SDS011;33676;51.006;17.180;2023-07-30T10:03:35;1.90;;;1.80;;
47912;SDS011;33676;51.006;17.180;2023-07-30T10:06:04;1.90;;;1.80;;
47912;SDS011;33676;51.006;17.180;2023-07-30T10:08:35;2.70;;;1.80;;
47912;SDS011;33676;51.006;17.180;2023-07-30T10:11:07;1.70;;;1.60;;
47912;SDS011;33676;51.006;17.180;2023-07-30T10:13:37;3.10;;;1.70;;
47912;SDS011;33676;51.006;17.180;2023-07-30T10:16:14;2.10;;;1.80;;
47912;SDS011;33676;51.006;17.180;2023-07-30T10:18:44;4.30;;;1.60;;
47912;SDS011;33676;51.006;17.180;2023-07-30T10:21:26;1.60;;;1.50;;
47912;SDS011;33676;51.006;17.180;2023-07-30T10:24:02;1.50;;;1.50;;
47912;SDS011;33676;51.006;17.180;2023-07-30T10:26:33;2.40;;;2.30;;
47912;SDS011;33676;51.006;17.180;2023-07-30T10:29:17;1.50;;;1.50;;
47912;SDS011;33676;51.006;17.180;2023-07-30T10:31:56;1.90;;;1.60;;
47912;SDS011;33676;51.006;17.180;2023-07-30T10:34:26;2.00;;;1.70;;
47912;SDS011;33676;51.006;17.180;2023-07-30T10:37:33;1.60;;;1.50;;
47912;SDS011;33676;51.006;17.180;2023-07-30T10:40:17;1.50;;;1.50;;
47912;SDS011;33676;51.006;17.180;2023-07-30T10:42:48;1.60;;;1.50;;
47912;SDS011;33676;51.006;17.180;2023-07-30T10:45:18;1.30;;;1.30;;
47912;SDS011;33676;51.006;17.180;2023-07-30T10:47:46;1.30;;;1.30;;
47912;SDS011;33676;51.006;17.180;2023-07-30T10:50:15;1.80;;;1.50;;
47912;SDS011;33676;51.006;17.180;2023-07-30T10:52:44;2.90;;;1.90;;
47912;SDS011;33676;51.006;17.180;2023-07-30T10:55:13;2.10;;;1.80;;
47912;SDS011;33676;51.006;17.180;2023-07-30T10:57:42;1.60;;;1.50;;
47912;SDS011;33676;51.006;17.180;2023-07-30T11:00:16;1.30;;;1.30;;
47912;SDS011;33676;51.006;17.180;2023-07-30T11:02:53;1.80;;;1.10;;
47912;SDS011;33676;51.006;17.180;2023-07-30T11:05:22;1.70;;;1.50;;
47912;SDS011;33676;51.006;17.180;2023-07-30T11:07:53;1.30;;;1.30;;
47912;SDS011;33676;51.006;17.180;2023-07-30T11:10:21;1.70;;;1.60;;
47912;SDS011;33676;51.006;17.180;2023-07-30T11:12:50;1.60;;;1.40;;
47912;SDS011;33676;51.006;17.180;2023-07-30T11:15:19;1.80;;;1.70;;
47912;SDS011;33676;51.006;17.180;2023-07-30T11:17:47;1.30;;;1.30;;
47912;SDS011;33676;51.006;17.180;2023-07-30T11:20:27;1.70;;;1.50;;
47912;SDS011;33676;51.006;17.180;2023-07-30T11:22:55;1.50;;;1.40;;
47912;SDS011;33676;51.006;17.180;2023-07-30T11:25:24;1.20;;;1.20;;
47912;SDS011;33676;51.006;17.180;2023-07-30T11:27:53;2.00;;;1.90;;
47912;SDS011;33676;51.006;17.180;2023-07-30T11:30:21;2.20;;;2.10;;
47912;SDS011;33676;51.006;17.180;2023-07-30T11:32:50;2.60;;;2.50;;
47912;SDS011;33676;51.006;17.180;2023-07-30T11:35:19;2.40;;;2.30;;
47912;SDS011;33676;51.006;17.180;2023-07-30T11:37:47;3.50;;;3.30;;
47912;SDS011;33676;51.006;17.180;2023-07-30T11:40:16;2.40;;;2.20;;
47912;SDS011;33676;51.006;17.180;2023-07-30T11:42:44;1.90;;;1.80;;
47912;SDS011;33676;51.006;17.180;2023-07-30T11:45:23;1.50;;;1.30;;
47912;SDS011;33676;51.006;17.180;2023-07-30T11:47:52;2.10;;;1.80;;
47912;SDS011;33676;51.006;17.180;2023-07-30T11:50:20;2.20;;;2.10;;
47912;SDS011;33676;51.006;17.180;2023-07-30T11:52:56;2.10;;;2.00;;
47912;SDS011;33676;51.006;17.180;2023-07-30T11:55:25;2.00;;;1.90;;
47912;SDS011;33676;51.006;17.180;2023-07-30T11:58:45;3.10;;;1.50;;
47912;SDS011;33676;51.006;17.180;2023-07-30T12:01:33;1.80;;;1.70;;
47912;SDS011;33676;51.006;17.180;2023-07-30T12:04:05;1.70;;;1.60;;
47912;SDS011;33676;51.006;17.180;2023-07-30T12:06:45;2.30;;;2.10;;
47912;SDS011;33676;51.006;17.180;2023-07-30T12:09:20;1.70;;;1.60;;
47912;SDS011;33676;51.006;17.180;2023-07-30T12:11:57;1.70;;;1.60;;
47912;SDS011;33676;51.006;17.180;2023-07-30T12:17:49;2.50;;;2.00;;
47912;SDS011;33676;51.006;17.180;2023-07-30T12:20:18;2.50;;;2.40;;
47912;SDS011;33676;51.006;17.180;2023-07-30T12:22:46;3.70;;;2.80;;
47912;SDS011;33676;51.006;17.180;2023-07-30T12:25:14;2.40;;;2.30;;
47912;SDS011;33676;51.006;17.180;2023-07-30T12:27:43;2.60;;;2.40;;
47912;SDS011;33676;51.006;17.180;2023-07-30T12:30:12;1.80;;;1.70;;
47912;SDS011;33676;51.006;17.180;2023-07-30T12:32:40;1.90;;;1.80;;
47912;SDS011;33676;51.006;17.180;2023-07-30T12:35:10;1.70;;;1.70;;
47912;SDS011;33676;51.006;17.180;2023-07-30T12:37:39;2.40;;;1.80;;
47912;SDS011;33676;51.006;17.180;2023-07-30T12:40:07;3.50;;;3.20;;
47912;SDS011;33676;51.006;17.180;2023-07-30T12:42:36;2.50;;;2.40;;
47912;SDS011;33676;51.006;17.180;2023-07-30T12:45:05;2.30;;;2.20;;
47912;SDS011;33676;51.006;17.180;2023-07-30T12:47:35;3.50;;;1.80;;
47912;SDS011;33676;51.006;17.180;2023-07-30T12:50:05;2.70;;;1.90;;
47912;SDS011;33676;51.006;17.180;2023-07-30T12:52:34;2.00;;;1.90;;
47912;SDS011;33676;51.006;17.180;2023-07-30T12:55:03;1.50;;;1.40;;
47912;SDS011;33676;51.006;17.180;2023-07-30T12:57:32;1.60;;;1.50;;
47912;SDS011;33676;51.006;17.180;2023-07-30T13:00:02;3.00;;;1.70;;
47912;SDS011;33676;51.006;17.180;2023-07-30T13:02:32;1.70;;;1.60;;
47912;SDS011;33676;51.006;17.180;2023-07-30T13:05:03;1.70;;;1.50;;
47912;SDS011;33676;51.006;17.180;2023-07-30T13:07:32;1.70;;;1.60;;
47912;SDS011;33676;51.006;17.180;2023-07-30T13:10:08;2.30;;;2.10;;
47912;SDS011;33676;51.006;17.180;2023-07-30T13:12:40;3.10;;;2.90;;
47912;SDS011;33676;51.006;17.180;2023-07-30T13:15:08;2.30;;;2.20;;
47912;SDS011;33676;51.006;17.180;2023-07-30T13:17:37;2.20;;;2.10;;
47912;SDS011;33676;51.006;17.180;2023-07-30T13:20:07;2.30;;;2.10;;
47912;SDS011;33676;51.006;17.180;2023-07-30T13:22:36;2.40;;;1.90;;
47912;SDS011;33676;51.006;17.180;2023-07-30T13:25:04;1.80;;;1.70;;
47912;SDS011;33676;51.006;17.180;2023-07-30T13:27:33;1.90;;;1.90;;
47912;SDS011;33676;51.006;17.180;2023-07-30T13:30:05;1.40;;;1.40;;
47912;SDS011;33676;51.006;17.180;2023-07-30T13:32:34;2.10;;;2.00;;
47912;SDS011;33676;51.006;17.180;2023-07-30T13:35:02;2.00;;;1.90;;
47912;SDS011;33676;51.006;17.180;2023-07-30T13:37:31;2.00;;;1.90;;
47912;SDS011;33676;51.006;17.180;2023-07-30T13:39:59;1.70;;;1.60;;
47912;SDS011;33676;51.006;17.180;2023-07-30T13:42:28;2.40;;;2.30;;
47912;SDS011;33676;51.006;17.180;2023-07-30T13:45:21;1.50;;;1.50;;
47912;SDS011;33676;51.006;17.180;2023-07-30T13:48:16;4.90;;;4.40;;
47912;SDS011;33676;51.006;17.180;2023-07-30T13:50:45;5.10;;;4.70;;
47912;SDS011;33676;51.006;17.180;2023-07-30T13:53:14;4.00;;;3.70;;
47912;SDS011;33676;51.006;17.180;2023-07-30T13:55:42;2.80;;;2.60;;
47912;SDS011;33676;51.006;17.180;2023-07-30T13:58:11;3.00;;;2.90;;
47912;SDS011;33676;51.006;17.180;2023-07-30T14:00:40;7.10;;;6.50;;
47912;SDS011;33676;51.006;17.180;2023-07-30T14:03:10;5.30;;;5.00;;
47912;SDS011;33676;51.006;17.180;2023-07-30T14:05:39;7.70;;;7.20;;
47912;SDS011;33676;51.006;17.180;2023-07-30T14:08:08;4.90;;;4.40;;
47912;SDS011;33676;51.006;17.180;2023-07-30T14:10:37;3.60;;;3.40;;
47912;SDS011;33676;51.006;17.180;2023-07-30T14:13:06;2.50;;;2.40;;
47912;SDS011;33676;51.006;17.180;2023-07-30T14:15:34;2.90;;;2.80;;
47912;SDS011;33676;51.006;17.180;2023-07-30T14:18:03;3.60;;;3.50;;
47912;SDS011;33676;51.006;17.180;2023-07-30T14:20:32;3.60;;;3.30;;
47912;SDS011;33676;51.006;17.180;2023-07-30T14:23:22;3.20;;;3.10;;
47912;SDS011;33676;51.006;17.180;2023-07-30T14:29:23;3.80;;;3.50;;
47912;SDS011;33676;51.006;17.180;2023-07-30T14:31:52;16.80;;;2.80;;
47912;SDS011;33676;51.006;17.180;2023-07-30T14:34:23;4.70;;;4.40;;
47912;SDS011;33676;51.006;17.180;2023-07-30T14:36:54;5.20;;;4.90;;
47912;SDS011;33676;51.006;17.180;2023-07-30T14:39:26;4.00;;;3.80;;
47912;SDS011;33676;51.006;17.180;2023-07-30T14:41:55;4.10;;;3.90;;
47912;SDS011;33676;51.006;17.180;2023-07-30T14:44:23;4.20;;;3.90;;
47912;SDS011;33676;51.006;17.180;2023-07-30T14:46:56;3.30;;;3.10;;
47912;SDS011;33676;51.006;17.180;2023-07-30T14:49:27;3.10;;;3.00;;
47912;SDS011;33676;51.006;17.180;2023-07-30T14:51:55;3.40;;;3.20;;
47912;SDS011;33676;51.006;17.180;2023-07-30T14:54:24;2.90;;;2.70;;
47912;SDS011;33676;51.006;17.180;2023-07-30T14:56:53;2.60;;;2.40;;
47912;SDS011;33676;51.006;17.180;2023-07-30T14:59:21;2.20;;;2.10;;
47912;SDS011;33676;51.006;17.180;2023-07-30T15:01:53;2.30;;;2.20;;
47912;SDS011;33676;51.006;17.180;2023-07-30T15:04:22;1.90;;;1.80;;
47912;SDS011;33676;51.006;17.180;2023-07-30T15:06:50;2.00;;;2.00;;